Time;durP1;ratioP1;P1;durP2;ratioP2;P2;SDS_P1;SDS_P2;PMS_P1;PMS_P2;Temp;Humidity;BMP_temperature;BMP_pressure;BME280_temperature;BME280_humidity;BME280_pressure;Samples;Min_cycle;Max_cycle;Signal;HPM_P1;HPM_P2
2021/12/24 00:00:27;;;;;;;;;;;;;;;6.55;93.35;95022.94;10352920;28;1895;-81
2021/12/24 00:05:33;;;;;;;;;;;;;;;6.32;94.80;95017.06;10348021;28;2070;-80
2021/12/24 00:10:37;;;;;;;;;;;;;;;6.25;95.55;95008.50;10355924;28;1880;-80
2021/12/24 00:15:52;;;;;;;;;;;;;;;6.15;95.80;95003.13;10342873;28;1815;-80
2021/12/24 00:37:04;;;;;;;;;;;;;;;5.74;99.65;94975.53;10326791;28;2281;-81
2021/12/24 00:42:08;;;;;;;;;;;;;;;5.77;99.91;94975.81;10342417;28;1914;-79
2021/12/24 00:47:11;;;;;;;;;;;;;;;5.82;99.76;94962.50;10318838;28;1823;-79
2021/12/24 00:52:33;;;;;;;;;;;;;;;5.72;100.00;94962.44;10323955;28;1812;-78
2021/12/24 00:57:36;;;;;;;;;;;;;;;5.75;100.00;94967.28;10320674;28;1960;-79
2021/12/24 01:02:40;;;;;;;;;;;;;;;5.85;100.00;94961.97;10350829;23;3616;-78
2021/12/24 01:07:45;;;;;;;;;;;;;;;5.73;100.00;94968.63;10367468;28;1567;-80
2021/12/24 01:12:49;;;;;;;;;;;;;;;5.90;100.00;94953.97;10369902;28;1944;-78
2021/12/24 01:17:59;;;;;;;;;;;;;;;6.22;98.75;94942.31;10371944;28;1930;-78
2021/12/24 01:39:07;;;;;;;;;;;;;;;6.75;96.49;94940.16;10388095;28;2083;-77
2021/12/24 01:44:11;;;;;;;;;;;;;;;6.74;96.36;94957.22;10379985;28;1949;-78
2021/12/24 01:49:15;;;;;;;;;;;;;;;6.81;95.84;94941.75;10399084;28;1844;-81
2021/12/24 01:54:19;;;;;;;;;;;;;;;6.88;95.84;94946.81;10416152;28;1776;-81
2021/12/24 01:59:22;;;;;;;;;;;;;;;6.92;95.00;94932.63;10401932;28;1929;-76
2021/12/24 02:04:26;;;;;;;;;;;;;;;6.99;94.59;94927.00;10383486;28;1830;-78
2021/12/24 02:09:30;;;;;;;;;;;;;;;7.04;94.25;94913.63;10384463;28;1927;-76
2021/12/24 02:14:37;;;;;;;;;;;;;;;7.07;94.51;94909.63;10400564;28;2001;-78
2021/12/24 02:30:24;;;;;;;;;;;;;;;7.21;93.94;94881.25;10392686;28;1989;-79
2021/12/24 02:35:28;;;;;;;;;;;;;;;7.31;92.84;94860.59;10378359;28;2119;-79
2021/12/24 02:40:32;;;;;;;;;;;;;;;7.44;92.04;94859.19;10390445;28;1970;-80
2021/12/24 02:45:37;;;;;;;;;;;;;;;7.46;91.39;94859.72;10385439;28;1990;-81
2021/12/24 02:56:05;;;;;;;;;;;;;;;7.60;90.59;94833.16;10369139;28;2002;-76
2021/12/24 03:01:09;;;;;;;;;;;;;;;7.61;90.48;94826.75;10384004;28;2059;-81
2021/12/24 03:06:13;;;;;;;;;;;;;;;7.70;89.29;94813.56;10373472;28;2010;-77
2021/12/24 03:11:16;;;;;;;;;;;;;;;7.62;89.67;94801.59;10376972;28;1799;-78
2021/12/24 03:16:21;;;;;;;;;;;;;;;7.76;87.60;94789.19;10388865;28;1723;-78
2021/12/24 03:21:40;;;;;;;;;;;;;;;7.71;88.19;94794.59;10386513;28;2396;-81
2021/12/24 03:26:53;;;;;;;;;;;;;;;7.79;87.21;94795.84;10384343;28;2065;-78
2021/12/24 03:31:56;;;;;;;;;;;;;;;7.94;86.32;94805.63;10377331;28;2007;-78
2021/12/24 03:37:00;;;;;;;;;;;;;;;7.91;86.01;94801.66;10378800;28;2086;-78
2021/12/24 03:42:04;;;;;;;;;;;;;;;7.89;86.04;94785.09;10381467;28;2038;-78
2021/12/24 03:47:11;;;;;;;;;;;;;;;7.90;83.82;94792.03;10385590;28;1967;-80
2021/12/24 03:52:33;;;;;;;;;;;;;;;7.61;84.53;94783.94;10409273;28;1902;-83
2021/12/24 03:57:37;;;;;;;;;;;;;;;7.38;86.21;94796.16;10403195;28;1889;-78
2021/12/24 04:02:41;;;;;;;;;;;;;;;7.35;86.33;94794.03;10382147;28;1907;-79
2021/12/24 04:07:45;;;;;;;;;;;;;;;7.21;86.12;94783.16;10379484;28;1805;-80
2021/12/24 04:12:49;;;;;;;;;;;;;;;7.03;86.45;94779.22;10374154;28;2012;-82
2021/12/24 04:17:53;;;;;;;;;;;;;;;7.09;85.55;94772.00;10374976;28;1978;-79
2021/12/24 04:28:17;;;;;;;;;;;;;;;7.03;85.69;94781.09;10398507;28;2001;-83
2021/12/24 04:33:27;;;;;;;;;;;;;;;7.01;86.06;94778.72;10380261;28;2033;-79
2021/12/24 04:38:39;;;;;;;;;;;;;;;7.09;84.86;94771.19;10380370;28;1918;-78
2021/12/24 05:05:19;;;;;;;;;;;;;;;7.07;76.71;94789.38;10364876;28;1898;-80
2021/12/24 05:10:28;;;;;;;;;;;;;;;6.96;76.22;94784.06;10360694;28;1692;-78
2021/12/24 05:15:34;;;;;;;;;;;;;;;6.93;75.05;94775.78;10365221;28;2159;-77
2021/12/24 05:26:01;;;;;;;;;;;;;;;7.03;73.97;94779.22;10376657;28;1966;-78
2021/12/24 05:31:05;;;;;;;;;;;;;;;6.97;73.67;94777.66;10363651;28;2066;-80
2021/12/24 05:36:08;;;;;;;;;;;;;;;7.01;73.41;94781.38;10361679;28;2001;-80
2021/12/24 05:41:12;;;;;;;;;;;;;;;7.02;74.34;94777.63;10358675;28;1939;-77
2021/12/24 05:46:15;;;;;;;;;;;;;;;6.97;73.04;94782.19;10364084;28;1901;-78
2021/12/24 05:51:19;;;;;;;;;;;;;;;6.99;72.87;94775.50;10381345;28;2574;-79
2021/12/24 05:56:23;;;;;;;;;;;;;;;7.04;72.90;94780.03;10367318;28;2209;-79
2021/12/24 06:01:27;;;;;;;;;;;;;;;7.15;72.34;94778.09;10376822;28;2351;-78
2021/12/24 06:06:30;;;;;;;;;;;;;;;7.14;73.39;94779.19;10372878;28;1986;-77
2021/12/24 06:11:34;;;;;;;;;;;;;;;7.32;72.10;94783.91;10376734;28;1334;-81
2021/12/24 06:16:46;;;;;;;;;;;;;;;7.28;72.03;94782.84;10376762;28;1937;-76
2021/12/24 06:21:50;;;;;;;;;;;;;;;7.23;72.24;94786.34;10371359;28;1902;-79
2021/12/24 06:26:53;;;;;;;;;;;;;;;7.32;72.21;94786.56;10370451;28;2327;-80
2021/12/24 06:31:57;;;;;;;;;;;;;;;7.24;73.17;94784.47;10365129;28;2042;-79
2021/12/24 06:37:00;;;;;;;;;;;;;;;7.31;72.82;94787.63;10372331;28;1928;-78
2021/12/24 06:42:04;;;;;;;;;;;;;;;7.28;74.83;94796.22;10366722;28;2002;-81
2021/12/24 06:47:08;;;;;;;;;;;;;;;7.20;77.98;94786.09;10383879;28;2052;-78
2021/12/24 06:52:11;;;;;;;;;;;;;;;7.15;78.74;94788.78;10380214;28;2388;-81
2021/12/24 06:57:18;;;;;;;;;;;;;;;7.02;80.48;94795.53;10379019;28;2427;-80
2021/12/24 07:02:22;;;;;;;;;;;;;;;7.01;79.88;94797.41;10373048;28;1973;-77
2021/12/24 07:07:26;;;;;;;;;;;;;;;6.98;79.96;94799.81;10374674;23;1929;-70
2021/12/24 07:12:29;;;;;;;;;;;;;;;7.03;79.37;94799.81;10364203;28;1443;-70
2021/12/24 07:17:32;;;;;;;;;;;;;;;7.10;79.33;94796.84;10365829;28;1640;-70
2021/12/24 07:22:36;;;;;;;;;;;;;;;7.23;78.05;94805.03;10344126;28;1918;-71
2021/12/24 07:27:39;;;;;;;;;;;;;;;7.22;78.12;94803.44;10366008;28;1892;-69
2021/12/24 07:32:43;;;;;;;;;;;;;;;7.27;78.87;94799.97;10360340;28;1882;-70
2021/12/24 07:37:46;;;;;;;;;;;;;;;7.23;79.98;94799.69;10366207;28;2050;-70
2021/12/24 07:42:50;;;;;;;;;;;;;;;7.28;78.39;94801.56;10375751;28;1910;-70
2021/12/24 07:48:07;;;;;;;;;;;;;;;7.28;79.02;94807.69;10366538;28;2071;-70
2021/12/24 07:53:12;;;;;;;;;;;;;;;7.46;78.73;94806.25;10366142;28;1958;-70
2021/12/24 07:58:17;;;;;;;;;;;;;;;7.53;79.85;94804.06;10364961;28;1896;-70
2021/12/24 08:03:21;;;;;;;;;;;;;;;7.46;83.00;94800.13;10360539;28;2011;-70
2021/12/24 08:08:24;;;;;;;;;;;;;;;7.39;84.31;94810.31;10340693;28;1937;-71
2021/12/24 08:13:28;;;;;;;;;;;;;;;7.36;86.68;94814.31;10364233;28;1656;-72
2021/12/24 08:18:32;;;;;;;;;;;;;;;7.18;90.65;94812.28;10365580;28;2015;-71
2021/12/24 08:23:35;;;;;;;;;;;;;;;7.17;91.49;94808.03;10362657;28;2000;-71
2021/12/24 08:28:39;;;;;;;;;;;;;;;7.13;91.44;94807.78;10369374;28;1892;-72
2021/12/24 08:33:42;;;;;;;;;;;;;;;6.99;95.10;94820.91;10367685;28;1901;-72
2021/12/24 08:38:46;;;;;;;;;;;;;;;6.97;95.31;94820.41;10364624;28;1529;-70
2021/12/24 08:43:49;;;;;;;;;;;;;;;6.99;94.03;94826.25;10358263;28;1973;-71
2021/12/24 08:48:53;;;;;;;;;;;;;;;6.90;94.57;94827.91;10355467;28;2051;-70
2021/12/24 08:53:56;;;;;;;;;;;;;;;6.93;95.40;94826.56;10364331;28;2097;-71
2021/12/24 08:59:00;;;;;;;;;;;;;;;7.00;95.84;94813.72;10331340;28;2016;-71
2021/12/24 09:04:03;;;;;;;;;;;;;;;6.95;96.23;94817.22;10345520;28;1983;-71
2021/12/24 09:09:08;;;;;;;;;;;;;;;7.00;97.38;94813.72;10346502;28;1969;-70
2021/12/24 09:14:17;;;;;;;;;;;;;;;6.98;97.06;94822.00;10350902;28;1726;-71
2021/12/24 09:19:24;;;;;;;;;;;;;;;6.94;97.76;94814.81;10339834;28;2043;-70
2021/12/24 09:24:29;;;;;;;;;;;;;;;6.93;99.76;94823.88;10346917;28;2155;-69
2021/12/24 09:29:33;;;;;;;;;;;;;;;6.81;100.00;94828.75;10335162;28;2226;-72
2021/12/24 09:34:38;;;;;;;;;;;;;;;6.76;100.00;94822.38;10348232;28;1966;-70
2021/12/24 09:39:42;;;;;;;;;;;;;;;6.65;100.00;94820.00;10357023;28;1993;-70
2021/12/24 09:44:45;;;;;;;;;;;;;;;6.53;100.00;94819.50;10377399;28;1910;-70
2021/12/24 09:49:49;;;;;;;;;;;;;;;6.47;100.00;94814.16;10362007;28;1957;-72
2021/12/24 09:54:53;;;;;;;;;;;;;;;6.53;100.00;94806.13;10366790;28;1962;-71
2021/12/24 09:59:56;;;;;;;;;;;;;;;6.43;100.00;94806.97;10367719;28;1887;-70
2021/12/24 10:05:00;;;;;;;;;;;;;;;6.35;100.00;94804.84;10360081;28;1964;-72
2021/12/24 10:10:04;;;;;;;;;;;;;;;6.33;100.00;94807.00;10366321;28;1948;-71
2021/12/24 10:15:07;;;;;;;;;;;;;;;6.30;100.00;94792.31;10370685;28;2070;-71
2021/12/24 10:20:11;;;;;;;;;;;;;;;6.33;100.00;94791.78;10337589;28;2046;-71
2021/12/24 10:25:14;;;;;;;;;;;;;;;6.37;100.00;94792.03;10329072;28;1984;-71
2021/12/24 10:30:18;;;;;;;;;;;;;;;6.44;100.00;94785.34;10328816;28;1874;-71
2021/12/24 10:35:22;;;;;;;;;;;;;;;6.47;100.00;94786.66;10335819;28;2081;-71
2021/12/24 10:40:26;;;;;;;;;;;;;;;6.48;100.00;94782.91;10313473;22;2002;-78
2021/12/24 10:45:32;;;;;;;;;;;;;;;6.46;100.00;94785.06;10303122;28;1430;-80
2021/12/24 10:50:48;;;;;;;;;;;;;;;6.42;100.00;94790.13;10309794;28;1815;-78
2021/12/24 10:55:52;;;;;;;;;;;;;;;6.43;100.00;94781.09;10264357;28;1945;-76
2021/12/24 11:00:56;;;;;;;;;;;;;;;6.57;100.00;94772.50;10260334;28;1899;-78
2021/12/24 11:06:00;;;;;;;;;;;;;;;6.64;100.00;94762.31;10262697;28;1424;-78
2021/12/24 11:11:04;;;;;;;;;;;;;;;6.70;100.00;94751.34;10278907;28;1946;-79
2021/12/24 11:16:09;;;;;;;;;;;;;;;6.67;100.00;94749.19;10295620;28;1910;-76
2021/12/24 11:21:13;;;;;;;;;;;;;;;6.73;100.00;94723.28;10286969;28;2121;-75
2021/12/24 11:26:17;;;;;;;;;;;;;;;6.79;100.00;94740.88;10255397;28;1801;-77
2021/12/24 11:31:20;;;;;;;;;;;;;;;6.82;100.00;94736.88;10269224;28;1854;-78
2021/12/24 11:36:24;;;;;;;;;;;;;;;6.72;100.00;94722.47;10260077;28;1836;-78
2021/12/24 11:41:29;;;;;;;;;;;;;;;6.74;100.00;94725.69;10231945;28;2002;-78
2021/12/24 11:46:33;;;;;;;;;;;;;;;6.65;100.00;94723.84;10256866;28;1880;-79
2021/12/24 11:51:40;;;;;;;;;;;;;;;6.61;100.00;94717.44;10262836;28;1866;-79
2021/12/24 11:56:45;;;;;;;;;;;;;;;6.58;100.00;94734.03;10259857;28;2012;-79
2021/12/24 12:01:49;;;;;;;;;;;;;;;6.58;100.00;94724.16;10247867;28;2120;-77
2021/12/24 12:06:53;;;;;;;;;;;;;;;6.56;100.00;94722.84;10238104;28;2100;-78
2021/12/24 12:11:57;;;;;;;;;;;;;;;6.55;100.00;94722.00;10247691;28;2159;-79
2021/12/24 12:17:01;;;;;;;;;;;;;;;6.56;100.00;94718.28;10246892;28;1870;-78
2021/12/24 12:22:12;;;;;;;;;;;;;;;6.61;100.00;94709.44;10256844;28;1919;-77
2021/12/24 12:27:15;;;;;;;;;;;;;;;6.61;100.00;94709.44;10230346;28;2185;-78
2021/12/24 12:32:19;;;;;;;;;;;;;;;6.62;100.00;94698.50;10236087;28;2073;-77
2021/12/24 12:37:23;;;;;;;;;;;;;;;6.60;100.00;94699.84;10255602;28;2187;-77
2021/12/24 12:42:26;;;;;;;;;;;;;;;6.65;100.00;94703.28;10244353;28;1899;-77
2021/12/24 12:47:36;;;;;;;;;;;;;;;6.65;100.00;94686.47;10274550;28;1824;-78
2021/12/24 12:52:41;;;;;;;;;;;;;;;6.68;100.00;94685.91;10274345;28;1738;-78
2021/12/24 12:57:45;;;;;;;;;;;;;;;6.71;100.00;94685.38;10255770;28;1881;-78
2021/12/24 13:02:48;;;;;;;;;;;;;;;6.67;100.00;94695.00;10252069;28;1918;-78
2021/12/24 13:07:53;;;;;;;;;;;;;;;6.68;100.00;94689.41;10247254;28;1861;-78
2021/12/24 13:12:56;;;;;;;;;;;;;;;6.67;100.00;94668.28;10253492;28;1863;-79
2021/12/24 13:18:05;;;;;;;;;;;;;;;6.68;100.00;94668.03;10258377;28;1867;-77
2021/12/24 13:23:09;;;;;;;;;;;;;;;6.70;100.00;94684.56;10249115;28;1978;-77
2021/12/24 13:28:13;;;;;;;;;;;;;;;6.71;100.00;94659.47;10253902;28;1913;-77
2021/12/24 13:33:17;;;;;;;;;;;;;;;6.76;100.00;94646.09;10256050;28;1944;-76
2021/12/24 13:38:24;;;;;;;;;;;;;;;6.87;100.00;94654.00;10292631;28;1652;-82
2021/12/24 13:43:28;;;;;;;;;;;;;;;6.90;100.00;94648.94;10301284;28;1970;-78
2021/12/24 13:48:44;;;;;;;;;;;;;;;6.96;100.00;94661.19;10255766;28;1863;-78
2021/12/24 13:59:10;;;;;;;;;;;;;;;6.96;100.00;94650.50;10250095;28;1929;-78
2021/12/24 14:04:14;;;;;;;;;;;;;;;6.99;100.00;94643.78;10249119;28;1922;-76
2021/12/24 14:09:18;;;;;;;;;;;;;;;6.86;100.00;94645.19;10242304;28;1808;-78
2021/12/24 14:14:25;;;;;;;;;;;;;;;6.75;100.00;94641.81;10253615;28;1919;-79
2021/12/24 14:19:33;;;;;;;;;;;;;;;6.72;100.00;94644.22;10260699;28;1733;-79
2021/12/24 14:24:37;;;;;;;;;;;;;;;6.71;100.00;94645.31;10256227;28;1942;-77
2021/12/24 14:29:40;;;;;;;;;;;;;;;6.67;100.00;94649.59;10274022;28;1910;-75
2021/12/24 14:34:44;;;;;;;;;;;;;;;6.66;100.00;94640.78;10273132;28;1900;-78
2021/12/24 14:39:48;;;;;;;;;;;;;;;6.63;100.00;94635.22;10269000;28;2301;-76
2021/12/24 14:44:52;;;;;;;;;;;;;;;6.59;100.00;94631.50;10266080;28;1977;-78
2021/12/24 14:49:56;;;;;;;;;;;;;;;6.60;100.00;94635.75;10263865;28;1822;-77
2021/12/24 14:55:00;;;;;;;;;;;;;;;6.57;100.00;94636.31;10251168;28;1890;-77
2021/12/24 15:00:04;;;;;;;;;;;;;;;6.50;100.00;94642.75;10263048;28;1828;-79
2021/12/24 15:05:08;;;;;;;;;;;;;;;6.41;100.00;94649.72;10262154;28;1919;-78
2021/12/24 15:10:12;;;;;;;;;;;;;;;6.43;100.00;94652.16;10247509;28;2118;-76
2021/12/24 15:15:15;;;;;;;;;;;;;;;6.43;100.00;94652.94;10266592;28;1689;-78
2021/12/24 15:20:20;;;;;;;;;;;;;;;6.47;100.00;94643.28;10247881;28;1989;-79
2021/12/24 15:25:24;;;;;;;;;;;;;;;6.50;100.00;94647.31;10268934;28;2203;-78
2021/12/24 15:30:28;;;;;;;;;;;;;;;6.50;100.00;94652.66;10264149;28;1828;-77
2021/12/24 15:35:32;;;;;;;;;;;;;;;6.44;100.00;94651.88;10252012;28;1828;-77
2021/12/24 15:40:36;;;;;;;;;;;;;;;6.42;100.00;94651.31;10250737;28;1871;-77
2021/12/24 15:45:44;;;;;;;;;;;;;;;6.47;100.00;94655.84;10248429;28;1918;-78
2021/12/24 15:50:48;;;;;;;;;;;;;;;6.37;100.00;94659.38;10242774;28;1872;-78
2021/12/24 15:55:52;;;;;;;;;;;;;;;6.33;100.00;94663.66;10258165;28;2035;-80
2021/12/24 16:00:56;;;;;;;;;;;;;;;6.29;100.00;94667.94;10252993;28;1874;-76
2021/12/24 16:05:59;;;;;;;;;;;;;;;6.25;100.00;94666.91;10254951;28;1971;-78
2021/12/24 16:11:03;;;;;;;;;;;;;;;6.25;100.00;94650.09;10251077;28;1835;-78
2021/12/24 16:16:07;;;;;;;;;;;;;;;6.26;100.00;94651.69;10238200;28;1892;-79
2021/12/24 16:21:11;;;;;;;;;;;;;;;6.25;100.00;94650.09;10237731;28;1933;-78
2021/12/24 16:26:14;;;;;;;;;;;;;;;6.23;100.00;94648.50;10244994;28;1911;-79
2021/12/24 16:31:18;;;;;;;;;;;;;;;6.17;100.00;94641.59;10274687;28;1848;-77
2021/12/24 16:36:22;;;;;;;;;;;;;;;6.15;100.00;94640.25;10286202;28;1937;-78
2021/12/24 16:41:26;;;;;;;;;;;;;;;6.20;100.00;94634.91;10284227;28;1883;-78
2021/12/24 16:46:30;;;;;;;;;;;;;;;6.22;100.00;94630.06;10281844;28;1852;-78
2021/12/24 16:51:36;;;;;;;;;;;;;;;6.21;100.00;94623.16;10296859;28;2037;-78
2021/12/24 16:56:40;;;;;;;;;;;;;;;6.20;100.00;94616.22;10288007;28;1887;-78
2021/12/24 17:01:44;;;;;;;;;;;;;;;6.16;100.00;94621.28;10284971;28;2055;-78
2021/12/24 17:06:48;;;;;;;;;;;;;;;6.22;100.00;94625.53;10295756;28;1832;-76
2021/12/24 17:11:52;;;;;;;;;;;;;;;6.23;100.00;94621.00;10269748;28;2250;-78
2021/12/24 17:16:58;;;;;;;;;;;;;;;6.22;100.00;94616.72;10302654;28;2330;-80
2021/12/24 17:22:02;;;;;;;;;;;;;;;6.23;100.00;94615.66;10299333;28;2097;-82
2021/12/24 17:27:07;;;;;;;;;;;;;;;6.28;100.00;94623.66;10298289;28;2040;-82
2021/12/24 17:32:11;;;;;;;;;;;;;;;6.31;100.00;94617.78;10291518;28;1811;-80
2021/12/24 17:37:16;;;;;;;;;;;;;;;6.31;100.00;94620.44;10287480;28;1871;-81
2021/12/24 17:42:19;;;;;;;;;;;;;;;6.33;100.00;94609.47;10280920;28;1982;-81
2021/12/24 17:47:23;;;;;;;;;;;;;;;6.30;100.00;94610.84;10298955;28;2100;-80
2021/12/24 17:52:27;;;;;;;;;;;;;;;6.31;100.00;94606.31;10302703;28;1911;-81
2021/12/24 17:57:31;;;;;;;;;;;;;;;6.32;100.00;94607.88;10314629;28;1835;-82
2021/12/24 18:02:38;;;;;;;;;;;;;;;6.34;100.00;94605.72;10315382;28;1970;-80
2021/12/24 18:07:43;;;;;;;;;;;;;;;6.28;100.00;94604.97;10314179;28;1655;-81
2021/12/24 18:12:47;;;;;;;;;;;;;;;6.28;100.00;94607.63;10302983;28;1799;-81
2021/12/24 18:17:51;;;;;;;;;;;;;;;6.24;100.00;94595.94;10301962;28;1955;-81
2021/12/24 18:22:55;;;;;;;;;;;;;;;6.24;100.00;94595.94;10307819;28;1956;-82
2021/12/24 18:27:59;;;;;;;;;;;;;;;6.20;100.00;94594.88;10312842;28;1837;-83
2021/12/24 18:33:02;;;;;;;;;;;;;;;6.25;100.00;94586.84;10313502;28;1938;-82
2021/12/24 18:38:08;;;;;;;;;;;;;;;6.22;100.00;94582.84;10320114;28;1459;-81
2021/12/24 18:43:12;;;;;;;;;;;;;;;6.21;100.00;94580.44;10314169;28;1957;-81
2021/12/24 18:48:15;;;;;;;;;;;;;;;6.23;100.00;94578.28;10290018;28;1948;-82
2021/12/24 18:53:19;;;;;;;;;;;;;;;6.22;100.00;94574.84;10282984;28;1702;-83
2021/12/24 18:58:23;;;;;;;;;;;;;;;6.26;100.00;94572.44;10310951;28;1788;-81
2021/12/24 19:03:27;;;;;;;;;;;;;;;6.29;100.00;94571.84;10295749;28;1950;-81
2021/12/24 19:08:31;;;;;;;;;;;;;;;6.33;100.00;94567.56;10283300;28;1526;-82
2021/12/24 19:13:37;;;;;;;;;;;;;;;6.35;100.00;94575.31;10282693;28;1728;-81
2021/12/24 19:18:41;;;;;;;;;;;;;;;6.37;100.00;94573.97;10283048;28;1807;-79
2021/12/24 19:23:45;;;;;;;;;;;;;;;6.41;100.00;94568.84;10285122;28;1949;-81
2021/12/24 19:28:49;;;;;;;;;;;;;;;6.33;100.00;94566.78;10288792;28;1847;-80
2021/12/24 19:33:53;;;;;;;;;;;;;;;6.35;100.00;94564.63;10294640;28;1715;-79
2021/12/24 19:38:56;;;;;;;;;;;;;;;6.28;100.00;94569.47;10275204;28;1839;-82
2021/12/24 19:44:01;;;;;;;;;;;;;;;6.31;100.00;94575.06;10291224;28;2081;-82
2021/12/24 19:49:04;;;;;;;;;;;;;;;6.25;100.00;94570.84;10281198;28;1797;-81
2021/12/24 19:54:09;;;;;;;;;;;;;;;6.24;100.00;94558.56;10277342;28;1947;-81
2021/12/24 19:59:13;;;;;;;;;;;;;;;6.25;100.00;94554.81;10291921;28;1913;-81
2021/12/24 20:04:17;;;;;;;;;;;;;;;6.31;100.00;94555.59;10281021;28;1986;-81
2021/12/24 20:09:21;;;;;;;;;;;;;;;6.33;100.00;94551.56;10273100;28;1830;-81
2021/12/24 20:14:25;;;;;;;;;;;;;;;6.36;100.00;94548.34;10278046;28;1888;-80
2021/12/24 20:19:29;;;;;;;;;;;;;;;6.34;100.00;94541.69;10266015;28;1897;-79
2021/12/24 20:24:32;;;;;;;;;;;;;;;6.36;100.00;94537.69;10279812;28;1942;-80
2021/12/24 20:29:37;;;;;;;;;;;;;;;6.31;100.00;94536.91;10277149;28;1937;-80
2021/12/24 20:34:40;;;;;;;;;;;;;;;6.36;100.00;94535.00;10275010;28;1899;-81
2021/12/24 20:39:44;;;;;;;;;;;;;;;6.39;100.00;94534.44;10283997;28;1889;-81
2021/12/24 20:44:49;;;;;;;;;;;;;;;6.35;100.00;94538.72;10282533;28;1978;-81
2021/12/24 20:49:53;;;;;;;;;;;;;;;6.37;100.00;94522.47;10273966;28;1774;-81
2021/12/24 20:55:01;;;;;;;;;;;;;;;6.38;100.00;94524.06;10278696;28;1815;-81
2021/12/24 21:00:05;;;;;;;;;;;;;;;6.45;100.00;94517.31;10268010;28;1799;-82
2021/12/24 21:05:09;;;;;;;;;;;;;;;6.48;100.00;94526.63;10275596;28;1968;-81
2021/12/24 21:10:12;;;;;;;;;;;;;;;6.56;100.00;94535.94;10270924;28;2558;-81
2021/12/24 21:15:16;;;;;;;;;;;;;;;6.48;100.00;94538.09;10285382;28;2074;-82
2021/12/24 21:20:20;;;;;;;;;;;;;;;6.42;100.00;94528.53;10296516;28;1863;-81
2021/12/24 21:25:23;;;;;;;;;;;;;;;6.39;100.00;94530.97;10295147;28;1887;-82
2021/12/24 21:30:27;;;;;;;;;;;;;;;6.34;100.00;94526.47;10289323;28;1880;-81
2021/12/24 21:35:30;;;;;;;;;;;;;;;6.34;100.00;94529.13;10287881;28;1882;-81
2021/12/24 21:40:36;;;;;;;;;;;;;;;6.35;100.00;94535.25;10282194;28;2291;-81
2021/12/24 21:45:40;;;;;;;;;;;;;;;6.33;100.00;94530.22;10277357;28;1946;-81
2021/12/24 21:50:44;;;;;;;;;;;;;;;6.35;100.00;94532.59;10272938;28;2073;-81
2021/12/24 21:55:48;;;;;;;;;;;;;;;6.35;100.00;94533.38;10284139;28;2211;-78
2021/12/24 22:00:52;;;;;;;;;;;;;;;6.41;100.00;94536.81;10290719;28;1882;-80
2021/12/24 22:06:08;;;;;;;;;;;;;;;6.44;100.00;94541.63;10288886;28;1911;-78
2021/12/24 22:11:12;;;;;;;;;;;;;;;6.48;100.00;94543.44;10285344;28;1574;-80
2021/12/24 22:16:16;;;;;;;;;;;;;;;6.48;100.00;94539.97;10287071;28;2242;-80
2021/12/24 22:21:22;;;;;;;;;;;;;;;6.40;100.00;94552.03;10284801;28;1800;-81
2021/12/24 22:26:26;;;;;;;;;;;;;;;6.43;100.00;94545.38;10305180;28;1890;-80
2021/12/24 22:31:30;;;;;;;;;;;;;;;6.50;100.00;94549.31;10305033;28;1828;-81
2021/12/24 22:36:34;;;;;;;;;;;;;;;6.49;100.00;94553.06;10292458;28;1882;-80
2021/12/24 22:41:38;;;;;;;;;;;;;;;6.47;100.00;94547.19;10275735;28;1828;-80
2021/12/24 22:46:42;;;;;;;;;;;;;;;6.47;100.00;94541.06;10285460;28;1981;-82
2021/12/24 22:51:58;;;;;;;;;;;;;;;6.50;100.00;94535.97;10284719;28;1921;-81
2021/12/24 22:57:01;;;;;;;;;;;;;;;6.48;100.00;94537.31;10280363;28;1501;-81
2021/12/24 23:02:05;;;;;;;;;;;;;;;6.45;100.00;94533.34;10285337;28;1783;-82
2021/12/24 23:07:09;;;;;;;;;;;;;;;6.43;100.00;94535.50;10288440;28;1910;-82
2021/12/24 23:12:15;;;;;;;;;;;;;;;6.45;100.00;94540.53;10287635;28;1759;-80
2021/12/24 23:17:25;;;;;;;;;;;;;;;6.49;100.00;94528.25;10308587;28;1791;-80
2021/12/24 23:22:28;;;;;;;;;;;;;;;6.41;100.00;94537.63;10300139;28;1955;-82
2021/12/24 23:27:32;;;;;;;;;;;;;;;6.37;100.00;94525.91;10278266;28;1907;-82
2021/12/24 23:32:36;;;;;;;;;;;;;;;6.41;100.00;94529.63;10272625;28;1868;-83
2021/12/24 23:37:39;;;;;;;;;;;;;;;6.41;100.00;94524.28;10305545;28;1834;-83
2021/12/24 23:42:45;;;;;;;;;;;;;;;6.43;100.00;94532.81;10289322;28;1711;-81
2021/12/24 23:47:48;;;;;;;;;;;;;;;6.47;100.00;94539.19;10278566;28;1910;-82
2021/12/24 23:52:56;;;;;;;;;;;;;;;6.59;100.00;94527.38;10315065;23;1973;-69
2021/12/24 23:57:59;;;;;;;;;;;;;;;6.59;100.00;94538.03;10320808;28;1765;-69
